createdAt,value
2019-02-05T00:01:34.190Z,1.20
2019-02-05T00:04:05.817Z,1.20
2019-02-05T00:06:35.531Z,1.22
2019-02-05T00:09:10.554Z,0.80
2019-02-05T00:11:39.950Z,1.05
2019-02-05T00:14:09.534Z,0.80
2019-02-05T00:16:39.351Z,0.93
2019-02-05T00:19:08.765Z,0.80
2019-02-05T00:21:38.198Z,0.90
2019-02-05T00:24:07.744Z,0.70
2019-02-05T00:26:37.159Z,0.70
2019-02-05T00:29:06.572Z,0.90
2019-02-05T00:31:36.225Z,0.70
2019-02-05T00:34:06.111Z,0.90
2019-02-05T00:36:35.525Z,0.70
2019-02-05T00:39:07.945Z,0.62
2019-02-05T00:41:37.826Z,0.70
2019-02-05T00:44:07.306Z,0.88
2019-02-05T00:46:36.713Z,0.88
2019-02-05T00:49:06.138Z,0.68
2019-02-05T00:51:35.627Z,0.70
2019-02-05T00:54:05.834Z,0.80
2019-02-05T00:56:35.206Z,0.90
2019-02-05T00:59:04.803Z,0.60
2019-02-05T01:01:34.233Z,0.80
2019-02-05T01:04:03.668Z,0.78
2019-02-05T01:06:33.088Z,0.90
2019-02-05T01:09:04.248Z,0.70
2019-02-05T01:11:33.690Z,0.55
2019-02-05T01:14:04.996Z,0.70
2019-02-05T01:16:34.403Z,0.80
2019-02-05T01:19:03.842Z,0.60
2019-02-05T01:21:33.262Z,0.70
2019-02-05T01:24:02.644Z,0.72
2019-02-05T01:26:32.105Z,0.65
2019-02-05T01:29:01.682Z,0.70
2019-02-05T01:31:31.075Z,0.78
2019-02-05T01:34:00.477Z,0.90
2019-02-05T01:36:29.855Z,0.70
2019-02-05T01:38:59.245Z,0.78
2019-02-05T01:41:28.736Z,0.82
2019-02-05T01:43:58.315Z,0.80
2019-02-05T01:46:27.721Z,0.80
2019-02-05T01:48:57.119Z,0.80
2019-02-05T01:51:26.574Z,0.95
2019-02-05T01:53:55.954Z,0.85
2019-02-05T01:56:25.403Z,0.72
2019-02-05T01:58:54.947Z,0.80
2019-02-05T02:01:24.528Z,0.90
2019-02-05T02:03:53.985Z,0.90
2019-02-05T02:06:23.350Z,1.10
2019-02-05T02:08:53.026Z,1.02
2019-02-05T02:11:22.638Z,1.00
2019-02-05T02:13:52.077Z,1.10
2019-02-05T02:16:21.480Z,0.80
2019-02-05T02:18:50.943Z,1.02
2019-02-05T02:21:20.296Z,1.20
2019-02-05T02:23:49.809Z,1.32
2019-02-05T02:26:19.292Z,1.40
2019-02-05T02:28:48.759Z,1.20
2019-02-05T02:31:18.243Z,1.20
2019-02-05T02:33:47.689Z,1.37
2019-02-05T02:36:17.078Z,1.40
2019-02-05T02:38:46.445Z,1.20
2019-02-05T02:41:15.863Z,1.57
2019-02-05T02:43:45.299Z,1.32
2019-02-05T02:46:14.705Z,1.17
2019-02-05T02:48:44.157Z,1.40
2019-02-05T02:51:13.621Z,1.47
2019-02-05T02:53:43.086Z,1.27
2019-02-05T02:56:12.841Z,1.50
2019-02-05T02:58:42.269Z,1.45
2019-02-05T03:01:11.832Z,1.60
2019-02-05T03:03:41.234Z,1.70
2019-02-05T03:06:10.623Z,1.77
2019-02-05T03:08:40.092Z,1.55
2019-02-05T03:11:09.571Z,1.70
2019-02-05T03:13:38.975Z,1.60
2019-02-05T03:16:08.486Z,1.50
2019-02-05T03:18:37.888Z,1.50
2019-02-05T03:21:07.461Z,1.45
2019-02-05T03:23:36.870Z,1.57
2019-02-05T03:26:06.314Z,1.65
2019-02-05T03:28:35.690Z,1.70
2019-02-05T03:31:05.293Z,1.72
2019-02-05T03:33:34.715Z,1.87
2019-02-05T03:36:04.199Z,1.75
2019-02-05T03:38:33.645Z,1.85
2019-02-05T03:41:10.186Z,2.00
2019-02-05T03:43:42.798Z,2.00
2019-02-05T03:46:16.964Z,1.55
2019-02-05T03:48:50.512Z,2.10
2019-02-05T03:51:44.532Z,1.92
2019-02-05T03:54:58.235Z,1.75
2019-02-05T03:58:03.324Z,1.87
2019-02-05T04:01:27.499Z,1.60
2019-02-05T04:04:33.536Z,2.08
2019-02-05T04:07:28.745Z,2.00
2019-02-05T04:10:35.096Z,2.47
2019-02-05T04:13:55.304Z,1.77
2019-02-05T04:17:04.022Z,1.90
2019-02-05T04:20:20.819Z,2.00
2019-02-05T04:23:15.555Z,2.00
2019-02-05T04:26:25.881Z,2.15
2019-02-05T04:29:11.761Z,2.00
2019-02-05T04:32:40.204Z,1.80
2019-02-05T04:35:46.163Z,2.35
2019-02-05T04:39:02.073Z,1.90
2019-02-05T04:42:10.348Z,2.02
2019-02-05T04:45:34.116Z,2.30
2019-02-05T04:48:36.371Z,1.98
2019-02-05T04:51:28.589Z,2.15
2019-02-05T04:54:19.924Z,2.30
2019-02-05T04:57:21.600Z,2.00
2019-02-05T05:00:16.660Z,2.08
2019-02-05T05:03:15.756Z,2.20
2019-02-05T05:06:32.324Z,2.30
2019-02-05T05:09:31.311Z,2.17
2019-02-05T05:12:00.732Z,2.50
2019-02-05T05:14:30.187Z,2.33
2019-02-05T05:17:00.078Z,2.15
2019-02-05T05:19:31.490Z,1.85
2019-02-05T05:22:01.147Z,1.92
2019-02-05T05:24:30.690Z,1.77
2019-02-05T05:27:00.279Z,2.20
2019-02-05T05:29:33.141Z,1.90
2019-02-05T05:32:01.235Z,2.08
2019-02-05T05:34:30.655Z,2.17
2019-02-05T05:36:58.226Z,2.02
2019-02-05T05:39:27.829Z,2.42
2019-02-05T05:41:57.265Z,2.10
2019-02-05T05:44:26.823Z,1.90
2019-02-05T05:46:56.226Z,1.90
2019-02-05T05:49:25.830Z,1.67
2019-02-05T05:51:55.259Z,1.80
2019-02-05T05:54:24.588Z,1.87
2019-02-05T05:56:54.026Z,1.90
2019-02-05T05:59:23.462Z,1.72
2019-02-05T06:01:52.875Z,1.65
2019-02-05T06:04:22.552Z,1.92
2019-02-05T06:06:51.954Z,1.87
2019-02-05T06:09:21.307Z,2.00
2019-02-05T06:11:50.712Z,1.90
2019-02-05T06:14:20.112Z,1.87
2019-02-05T06:16:49.559Z,2.27
2019-02-05T06:19:18.969Z,1.72
2019-02-05T06:21:48.408Z,1.90
2019-02-05T06:24:18.176Z,2.20
2019-02-05T06:26:47.627Z,1.90
2019-02-05T06:29:17.087Z,2.02
2019-02-05T06:31:46.502Z,2.02
2019-02-05T06:34:15.827Z,2.27
2019-02-05T06:36:45.542Z,2.20
2019-02-05T06:39:15.152Z,2.02
2019-02-05T06:41:44.553Z,2.62
2019-02-05T06:44:13.943Z,2.02
2019-02-05T06:46:43.332Z,2.08
2019-02-05T06:49:12.751Z,2.20
2019-02-05T06:51:42.608Z,2.12
2019-02-05T06:54:11.998Z,2.33
2019-02-05T06:56:42.378Z,2.80
2019-02-05T06:59:12.049Z,3.08
2019-02-05T07:01:41.411Z,4.10
2019-02-05T07:04:10.787Z,3.75
2019-02-05T07:06:40.225Z,4.55
2019-02-05T07:09:11.027Z,4.37
2019-02-05T07:11:40.678Z,4.83
2019-02-05T07:14:10.214Z,4.83
2019-02-05T07:16:39.650Z,5.17
2019-02-05T07:19:09.073Z,5.78
2019-02-05T07:21:38.730Z,5.53
2019-02-05T07:24:08.528Z,6.05
2019-02-05T07:26:37.968Z,5.15
2019-02-05T07:29:07.586Z,5.25
2019-02-05T07:31:36.955Z,5.75
2019-02-05T07:34:06.458Z,4.80
2019-02-05T07:36:36.113Z,4.60
2019-02-05T07:39:12.108Z,4.35
2019-02-05T07:41:41.659Z,3.92
2019-02-05T07:44:11.288Z,4.00
2019-02-05T07:46:40.658Z,4.10
2019-02-05T07:49:10.156Z,3.85
2019-02-05T07:51:39.630Z,4.12
2019-02-05T07:54:09.020Z,3.45
2019-02-05T07:56:38.642Z,3.75
2019-02-05T07:59:10.297Z,4.45
2019-02-05T08:01:39.124Z,4.60
2019-02-05T08:04:08.609Z,4.45
2019-02-05T08:06:38.075Z,3.92
2019-02-05T08:09:10.655Z,3.65
2019-02-05T08:11:44.229Z,4.33
2019-02-05T08:14:13.788Z,6.25
2019-02-05T08:16:43.227Z,4.05
2019-02-05T08:19:12.687Z,5.85
2019-02-05T08:21:42.622Z,5.35
2019-02-05T08:24:12.062Z,4.53
2019-02-05T08:26:41.573Z,3.65
2019-02-05T08:29:21.298Z,3.90
2019-02-05T08:31:58.999Z,4.03
2019-02-05T08:34:28.566Z,3.58
2019-02-05T08:36:58.170Z,4.00
2019-02-05T08:39:27.590Z,3.50
2019-02-05T08:41:57.264Z,2.95
2019-02-05T08:44:26.648Z,3.08
2019-02-05T08:46:56.217Z,3.42
2019-02-05T08:49:25.613Z,2.58
2019-02-05T08:51:54.993Z,2.47
2019-02-05T08:54:24.395Z,3.00
2019-02-05T08:56:53.855Z,3.08
2019-02-05T08:59:24.224Z,3.10
2019-02-05T09:01:53.706Z,2.47
2019-02-05T09:04:23.095Z,2.90
2019-02-05T09:06:52.538Z,2.60
2019-02-05T09:09:22.043Z,2.50
2019-02-05T09:11:51.428Z,2.58
2019-02-05T09:14:21.384Z,2.37
2019-02-05T09:16:50.835Z,2.05
2019-02-05T09:19:20.327Z,2.25
2019-02-05T09:21:49.707Z,2.10
2019-02-05T09:24:19.286Z,1.75
2019-02-05T09:26:48.808Z,1.90
2019-02-05T09:29:18.305Z,2.42
2019-02-05T09:31:48.158Z,2.30
2019-02-05T09:34:17.709Z,2.62
2019-02-05T09:36:48.121Z,2.15
2019-02-05T09:39:17.805Z,2.22
2019-02-05T09:41:47.225Z,1.98
2019-02-05T09:44:16.657Z,2.02
2019-02-05T09:46:46.981Z,1.87
2019-02-05T09:49:16.508Z,1.95
2019-02-05T09:51:46.701Z,1.90
2019-02-05T09:54:16.658Z,1.65
2019-02-05T09:56:46.322Z,1.90
2019-02-05T09:59:15.952Z,1.60
2019-02-05T10:01:46.437Z,1.87
2019-02-05T10:04:16.182Z,1.62
2019-02-05T10:06:45.886Z,1.72
2019-02-05T10:09:15.745Z,1.55
2019-02-05T10:11:45.531Z,1.42
2019-02-05T10:14:15.389Z,1.62
2019-02-05T10:16:45.023Z,1.42
2019-02-05T10:19:15.053Z,1.70
2019-02-05T10:21:44.832Z,1.50
2019-02-05T10:24:14.546Z,1.57
2019-02-05T10:26:44.274Z,1.57
2019-02-05T10:29:13.934Z,1.90
2019-02-05T10:31:43.543Z,1.42
2019-02-05T10:34:13.710Z,1.42
2019-02-05T10:36:43.363Z,1.75
2019-02-05T10:39:13.332Z,1.40
2019-02-05T10:41:45.681Z,1.57
2019-02-05T10:44:15.621Z,1.45
2019-02-05T10:46:45.430Z,1.47
2019-02-05T10:49:15.574Z,1.25
2019-02-05T10:51:45.253Z,1.40
2019-02-05T10:54:15.073Z,1.30
2019-02-05T10:56:44.852Z,1.67
2019-02-05T10:59:14.465Z,1.70
2019-02-05T11:01:44.333Z,1.40
2019-02-05T11:04:14.425Z,1.60
2019-02-05T11:06:44.095Z,1.67
2019-02-05T11:09:13.914Z,1.52
2019-02-05T11:11:43.965Z,1.30
2019-02-05T11:14:13.775Z,1.40
2019-02-05T11:16:43.480Z,1.92
2019-02-05T11:19:13.287Z,1.40
2019-02-05T11:21:43.258Z,1.60
2019-02-05T11:24:13.147Z,1.40
2019-02-05T11:26:43.058Z,1.70
2019-02-05T11:29:12.719Z,1.65
2019-02-05T11:31:42.414Z,1.37
2019-02-05T11:34:12.036Z,1.40
2019-02-05T11:36:41.958Z,1.45
2019-02-05T11:39:16.687Z,1.45
2019-02-05T11:41:46.649Z,1.77
2019-02-05T11:44:16.367Z,1.47
2019-02-05T11:46:46.137Z,1.40
2019-02-05T11:49:15.774Z,1.30
2019-02-05T11:51:46.049Z,1.90
2019-02-05T11:54:15.800Z,1.70
2019-02-05T11:56:45.577Z,1.55
2019-02-05T11:59:15.300Z,1.57
2019-02-05T12:01:45.091Z,1.47
2019-02-05T12:04:15.111Z,1.60
2019-02-05T12:06:44.996Z,1.30
2019-02-05T12:09:21.595Z,1.55
2019-02-05T12:11:51.559Z,1.42
2019-02-05T12:14:21.455Z,1.60
2019-02-05T12:16:51.187Z,1.42
2019-02-05T12:19:20.916Z,1.50
2019-02-05T12:21:50.892Z,1.55
2019-02-05T12:24:20.774Z,1.12
2019-02-05T12:26:50.474Z,1.55
2019-02-05T12:29:20.259Z,1.40
2019-02-05T12:31:49.958Z,1.50
2019-02-05T12:34:19.629Z,1.55
2019-02-05T12:36:49.691Z,1.50
2019-02-05T12:39:20.973Z,1.50
2019-02-05T12:41:50.688Z,1.72
2019-02-05T12:44:20.497Z,1.62
2019-02-05T12:46:50.291Z,1.47
2019-02-05T12:49:19.945Z,1.50
2019-02-05T12:51:49.706Z,1.30
2019-02-05T12:54:19.528Z,1.50
2019-02-05T12:56:49.254Z,1.40
2019-02-05T12:59:19.171Z,1.15
2019-02-05T13:01:48.818Z,1.40
2019-02-05T13:04:18.643Z,1.02
2019-02-05T13:06:48.398Z,1.42
2019-02-05T13:09:18.161Z,1.37
2019-02-05T13:11:48.033Z,1.22
2019-02-05T13:14:18.088Z,1.20
2019-02-05T13:16:48.743Z,1.40
2019-02-05T13:19:18.486Z,1.50
2019-02-05T13:21:48.872Z,1.15
2019-02-05T13:24:18.592Z,1.62
2019-02-05T13:26:48.432Z,1.20
2019-02-05T13:29:18.344Z,1.30
2019-02-05T13:31:48.123Z,1.40
2019-02-05T13:34:17.831Z,1.20
2019-02-05T13:36:47.748Z,1.30
2019-02-05T13:39:17.560Z,1.60
2019-02-05T13:41:47.262Z,1.32
2019-02-05T13:44:17.047Z,1.30
2019-02-05T13:46:46.787Z,1.85
2019-02-05T13:49:16.513Z,1.25
2019-02-05T13:51:46.358Z,1.67
2019-02-05T13:54:16.159Z,1.10
2019-02-05T13:56:45.976Z,1.20
2019-02-05T13:59:15.691Z,1.30
2019-02-05T14:01:45.417Z,1.20
2019-02-05T14:04:18.389Z,1.17
2019-02-05T14:06:50.569Z,1.82
2019-02-05T14:09:20.069Z,1.70
2019-02-05T14:11:49.735Z,2.05
2019-02-05T14:14:24.793Z,1.95
2019-02-05T14:16:54.895Z,1.80
2019-02-05T14:19:24.599Z,1.82
2019-02-05T14:21:54.414Z,2.25
2019-02-05T14:24:24.145Z,1.85
2019-02-05T14:26:54.257Z,1.82
2019-02-05T14:29:24.118Z,2.08
2019-02-05T14:31:54.278Z,2.00
2019-02-05T14:34:24.066Z,1.60
2019-02-05T14:36:53.702Z,2.35
2019-02-05T14:39:23.436Z,2.65
2019-02-05T14:41:53.319Z,2.22
2019-02-05T14:44:23.063Z,1.87
2019-02-05T14:46:53.024Z,2.75
2019-02-05T14:49:23.674Z,2.10
2019-02-05T14:51:53.369Z,2.30
2019-02-05T14:54:22.952Z,1.70
2019-02-05T14:56:52.668Z,2.47
2019-02-05T14:59:22.435Z,2.27
2019-02-05T15:01:52.267Z,2.30
2019-02-05T15:04:22.000Z,1.92
2019-02-05T15:06:51.776Z,1.55
2019-02-05T15:09:21.615Z,1.90
2019-02-05T15:11:51.374Z,2.08
2019-02-05T15:14:21.215Z,1.67
2019-02-05T15:16:50.926Z,2.08
2019-02-05T15:19:20.700Z,2.10
2019-02-05T15:21:50.460Z,1.85
2019-02-05T15:24:20.139Z,1.77
2019-02-05T15:26:50.012Z,1.70
2019-02-05T15:29:20.088Z,1.95
2019-02-05T15:31:54.566Z,1.50
2019-02-05T15:34:24.315Z,2.17
2019-02-05T15:36:54.033Z,1.98
2019-02-05T15:39:26.717Z,2.05
2019-02-05T15:41:56.996Z,2.02
2019-02-05T15:44:26.776Z,2.40
2019-02-05T15:46:56.539Z,2.12
2019-02-05T15:49:27.035Z,2.08
2019-02-05T15:51:57.015Z,1.67
2019-02-05T15:54:26.734Z,1.77
2019-02-05T15:56:56.363Z,1.62
2019-02-05T15:59:26.054Z,1.65
2019-02-05T16:02:05.844Z,1.70
2019-02-05T16:04:27.400Z,1.77
2019-02-05T16:06:57.138Z,1.90
2019-02-05T16:09:26.916Z,1.60
2019-02-05T16:11:56.627Z,2.10
2019-02-05T16:14:26.282Z,1.72
2019-02-05T16:16:56.044Z,1.70
2019-02-05T16:19:25.756Z,2.17
2019-02-05T16:21:55.485Z,1.75
2019-02-05T16:24:25.575Z,1.67
2019-02-05T16:26:55.320Z,1.85
2019-02-05T16:29:25.041Z,1.60
2019-02-05T16:31:54.986Z,1.87
2019-02-05T16:34:24.727Z,1.57
2019-02-05T16:36:54.471Z,1.95
2019-02-05T16:39:24.544Z,1.32
2019-02-05T16:41:54.317Z,1.65
2019-02-05T16:44:24.118Z,1.37
2019-02-05T16:46:58.679Z,1.47
2019-02-05T16:49:28.337Z,2.77
2019-02-05T16:51:57.954Z,1.70
2019-02-05T16:54:27.926Z,1.75
2019-02-05T16:56:57.574Z,1.50
2019-02-05T16:59:27.218Z,1.30
2019-02-05T17:01:57.376Z,1.30
2019-02-05T17:04:27.265Z,1.20
2019-02-05T17:06:57.032Z,1.90
2019-02-05T17:09:26.965Z,1.15
2019-02-05T17:11:57.029Z,1.10
2019-02-05T17:14:26.912Z,1.30
2019-02-05T17:16:56.668Z,1.32
2019-02-05T17:19:26.519Z,1.17
2019-02-05T17:21:56.756Z,1.07
2019-02-05T17:24:26.616Z,0.90
2019-02-05T17:26:56.479Z,1.20
2019-02-05T17:29:26.395Z,1.37
2019-02-05T17:31:56.225Z,0.95
2019-02-05T17:34:25.856Z,1.00
2019-02-05T17:36:56.047Z,0.70
2019-02-05T17:39:26.535Z,0.90
2019-02-05T17:41:56.382Z,0.88
2019-02-05T17:44:26.211Z,0.95
2019-02-05T17:46:56.053Z,0.90
2019-02-05T17:49:25.718Z,0.70
2019-02-05T17:51:55.648Z,1.10
2019-02-05T17:54:25.421Z,1.02
2019-02-05T17:56:55.103Z,1.20
2019-02-05T17:59:24.776Z,0.95
2019-02-05T18:01:54.564Z,0.70
2019-02-05T18:04:24.310Z,1.00
2019-02-05T18:06:53.994Z,1.40
2019-02-05T18:09:23.817Z,0.95
2019-02-05T18:11:53.501Z,0.90
2019-02-05T18:14:24.271Z,1.10
2019-02-05T18:16:54.037Z,1.22
2019-02-05T18:19:24.240Z,1.00
2019-02-05T18:21:54.033Z,1.02
2019-02-05T18:24:23.795Z,0.88
2019-02-05T18:26:53.593Z,1.10
2019-02-05T18:29:23.355Z,1.10
2019-02-05T18:31:53.043Z,0.90
2019-02-05T18:34:23.152Z,1.00
2019-02-05T18:36:53.019Z,1.05
2019-02-05T18:39:22.782Z,1.57
2019-02-05T18:41:52.798Z,1.30
2019-02-05T18:44:22.472Z,1.30
2019-02-05T18:46:52.242Z,1.75
2019-02-05T18:49:22.199Z,6.50
2019-02-05T18:51:51.989Z,9.18
2019-02-05T18:54:20.333Z,20.55
2019-02-05T18:56:52.178Z,21.02
2019-02-05T18:59:21.741Z,25.20
2019-02-05T19:01:51.271Z,66.60
2019-02-05T19:04:20.834Z,62.45
2019-02-05T19:06:50.357Z,52.83
2019-02-05T19:09:19.924Z,47.27
2019-02-05T19:11:49.607Z,44.13
2019-02-05T19:14:19.183Z,38.53
2019-02-05T19:16:48.734Z,36.40
2019-02-05T19:19:18.366Z,32.75
2019-02-05T19:21:47.961Z,30.08
2019-02-05T19:24:36.438Z,26.97
2019-02-05T19:27:06.363Z,24.43
2019-02-05T19:29:36.280Z,21.70
2019-02-05T19:32:05.969Z,18.75
2019-02-05T19:34:35.655Z,17.75
2019-02-05T19:37:05.600Z,16.23
2019-02-05T19:39:35.268Z,16.00
2019-02-05T19:42:05.166Z,15.83
2019-02-05T19:44:35.980Z,13.55
2019-02-05T19:47:08.445Z,12.50
2019-02-05T19:49:40.551Z,12.15
2019-02-05T19:52:10.100Z,12.33
2019-02-05T19:54:39.636Z,12.58
2019-02-05T19:57:15.334Z,11.93
2019-02-05T19:59:45.200Z,10.53
2019-02-05T20:02:14.849Z,9.73
2019-02-05T20:04:44.482Z,10.23
2019-02-05T20:07:14.023Z,10.08
2019-02-05T20:09:43.540Z,10.10
2019-02-05T20:12:13.069Z,10.98
2019-02-05T20:14:42.695Z,14.93
2019-02-05T20:17:12.507Z,13.05
2019-02-05T20:19:41.999Z,11.45
2019-02-05T20:22:11.586Z,12.00
2019-02-05T20:24:41.088Z,10.03
2019-02-05T20:27:10.752Z,10.03
2019-02-05T20:29:40.433Z,9.63
2019-02-05T20:32:11.258Z,9.65
2019-02-05T20:34:40.871Z,8.58
2019-02-05T20:37:10.527Z,8.30
2019-02-05T20:39:40.089Z,8.60
2019-02-05T20:42:09.676Z,7.28
2019-02-05T20:44:40.210Z,6.85
2019-02-05T20:47:09.909Z,6.67
2019-02-05T20:49:39.459Z,6.55
2019-02-05T20:52:09.309Z,7.25
2019-02-05T20:54:38.887Z,6.20
2019-02-05T20:57:08.498Z,6.47
2019-02-05T20:59:38.104Z,5.65
2019-02-05T21:02:08.107Z,5.97
2019-02-05T21:04:48.031Z,5.33
2019-02-05T21:07:09.298Z,5.35
2019-02-05T21:09:42.066Z,5.12
2019-02-05T21:12:10.198Z,4.37
2019-02-05T21:14:39.869Z,4.78
2019-02-05T21:17:09.472Z,4.67
2019-02-05T21:19:39.035Z,4.35
2019-02-05T21:22:09.103Z,4.42
2019-02-05T21:24:38.695Z,4.28
2019-02-05T21:27:08.192Z,4.10
2019-02-05T21:29:37.722Z,4.08
2019-02-05T21:32:07.220Z,3.87
2019-02-05T21:34:37.004Z,3.70
2019-02-05T21:37:06.493Z,3.42
2019-02-05T21:39:35.999Z,3.33
2019-02-05T21:42:06.593Z,3.35
2019-02-05T21:44:36.133Z,4.08
2019-02-05T21:47:05.760Z,4.47
2019-02-05T21:49:35.335Z,4.80
2019-02-05T21:52:05.101Z,4.00
2019-02-05T21:54:34.636Z,3.62
2019-02-05T21:57:04.233Z,3.60
2019-02-05T21:59:34.146Z,3.90
2019-02-05T22:02:04.330Z,3.70
2019-02-05T22:04:34.640Z,3.27
2019-02-05T22:07:04.189Z,3.22
2019-02-05T22:09:34.145Z,3.33
2019-02-05T22:12:03.794Z,3.20
2019-02-05T22:14:33.269Z,3.15
2019-02-05T22:17:02.898Z,4.40
2019-02-05T22:19:32.389Z,5.15
2019-02-05T22:22:02.350Z,4.37
2019-02-05T22:24:32.278Z,4.42
2019-02-05T22:27:02.069Z,3.85
2019-02-05T22:29:31.589Z,3.77
2019-02-05T22:32:01.083Z,3.98
2019-02-05T22:34:38.842Z,4.12
2019-02-05T22:37:03.614Z,3.45
2019-02-05T22:39:33.479Z,3.72
2019-02-05T22:42:03.110Z,3.58
2019-02-05T22:44:32.633Z,3.85
2019-02-05T22:47:02.611Z,3.70
2019-02-05T22:49:32.175Z,3.83
2019-02-05T22:52:01.731Z,3.22
2019-02-05T22:54:31.673Z,3.47
2019-02-05T22:57:01.219Z,3.17
2019-02-05T22:59:31.138Z,3.45
2019-02-05T23:02:02.488Z,3.60
2019-02-05T23:05:11.224Z,3.10
2019-02-05T23:07:40.730Z,3.62
2019-02-05T23:10:38.475Z,2.65
2019-02-05T23:13:11.020Z,2.87
2019-02-05T23:15:43.782Z,3.17
2019-02-05T23:18:13.949Z,2.92
2019-02-05T23:20:43.534Z,3.30
2019-02-05T23:23:13.088Z,3.30
2019-02-05T23:25:42.676Z,3.10
2019-02-05T23:28:12.356Z,2.77
2019-02-05T23:30:42.336Z,2.52
2019-02-05T23:33:12.275Z,3.22
2019-02-05T23:35:41.760Z,2.70
2019-02-05T23:38:11.335Z,2.72
2019-02-05T23:40:40.794Z,2.67
2019-02-05T23:43:10.467Z,2.62
2019-02-05T23:45:40.008Z,2.58
2019-02-05T23:48:10.108Z,3.10
2019-02-05T23:50:39.991Z,2.83
2019-02-05T23:53:09.545Z,2.80
2019-02-05T23:55:39.016Z,2.85
2019-02-05T23:58:08.585Z,2.62
